sensor_id;sensor_type;location;lat;lon;timestamp;P1;durP1;ratioP1;P2;durP2;ratioP2
58015;SDS011;43809;52.110;20.964;2022-08-21T00:00:39;4.13;;;3.70;;
58015;SDS011;43809;52.110;20.964;2022-08-21T00:02:47;5.35;;;3.50;;
58015;SDS011;43809;52.110;20.964;2022-08-21T00:04:47;4.90;;;4.13;;
58015;SDS011;43809;52.110;20.964;2022-08-21T00:06:48;4.35;;;3.80;;
58015;SDS011;43809;52.110;20.964;2022-08-21T00:08:49;5.82;;;4.25;;
58015;SDS011;43809;52.110;20.964;2022-08-21T00:10:50;4.97;;;4.40;;
58015;SDS011;43809;52.110;20.964;2022-08-21T00:12:50;4.70;;;4.20;;
58015;SDS011;43809;52.110;20.964;2022-08-21T00:14:51;4.28;;;3.88;;
58015;SDS011;43809;52.110;20.964;2022-08-21T00:16:51;4.32;;;3.47;;
58015;SDS011;43809;52.110;20.964;2022-08-21T00:18:51;4.60;;;3.87;;
58015;SDS011;43809;52.110;20.964;2022-08-21T00:20:51;5.03;;;3.73;;
58015;SDS011;43809;52.110;20.964;2022-08-21T00:22:52;4.00;;;3.60;;
58015;SDS011;43809;52.110;20.964;2022-08-21T00:24:52;4.83;;;4.17;;
58015;SDS011;43809;52.110;20.964;2022-08-21T00:26:52;4.97;;;4.27;;
58015;SDS011;43809;52.110;20.964;2022-08-21T00:28:52;4.07;;;3.58;;
58015;SDS011;43809;52.110;20.964;2022-08-21T00:30:53;6.27;;;3.90;;
58015;SDS011;43809;52.110;20.964;2022-08-21T00:32:54;5.60;;;3.30;;
58015;SDS011;43809;52.110;20.964;2022-08-21T00:34:55;4.17;;;3.77;;
58015;SDS011;43809;52.110;20.964;2022-08-21T00:36:55;4.53;;;3.90;;
58015;SDS011;43809;52.110;20.964;2022-08-21T00:38:55;5.10;;;3.53;;
58015;SDS011;43809;52.110;20.964;2022-08-21T00:40:57;4.00;;;3.63;;
58015;SDS011;43809;52.110;20.964;2022-08-21T00:42:58;3.75;;;3.35;;
58015;SDS011;43809;52.110;20.964;2022-08-21T00:44:58;3.30;;;3.00;;
58015;SDS011;43809;52.110;20.964;2022-08-21T00:46:59;3.45;;;3.15;;
58015;SDS011;43809;52.110;20.964;2022-08-21T00:48:59;3.30;;;2.83;;
58015;SDS011;43809;52.110;20.964;2022-08-21T00:51:00;3.50;;;2.30;;
58015;SDS011;43809;52.110;20.964;2022-08-21T00:55:02;3.50;;;3.20;;
58015;SDS011;43809;52.110;20.964;2022-08-21T00:57:04;2.88;;;2.63;;
58015;SDS011;43809;52.110;20.964;2022-08-21T00:59:06;2.35;;;2.15;;
58015;SDS011;43809;52.110;20.964;2022-08-21T01:01:07;2.45;;;2.05;;
58015;SDS011;43809;52.110;20.964;2022-08-21T01:03:09;2.53;;;2.33;;
58015;SDS011;43809;52.110;20.964;2022-08-21T01:05:10;2.40;;;2.20;;
58015;SDS011;43809;52.110;20.964;2022-08-21T01:07:10;2.35;;;2.15;;
58015;SDS011;43809;52.110;20.964;2022-08-21T01:09:11;3.83;;;2.80;;
58015;SDS011;43809;52.110;20.964;2022-08-21T01:11:11;2.78;;;2.53;;
58015;SDS011;43809;52.110;20.964;2022-08-21T01:13:11;3.80;;;2.57;;
58015;SDS011;43809;52.110;20.964;2022-08-21T01:15:13;2.45;;;2.15;;
58015;SDS011;43809;52.110;20.964;2022-08-21T01:17:15;2.20;;;2.00;;
58015;SDS011;43809;52.110;20.964;2022-08-21T01:19:15;2.55;;;2.30;;
58015;SDS011;43809;52.110;20.964;2022-08-21T01:21:18;2.22;;;2.03;;
58015;SDS011;43809;52.110;20.964;2022-08-21T01:23:19;3.28;;;2.72;;
58015;SDS011;43809;52.110;20.964;2022-08-21T01:25:19;3.13;;;2.63;;
58015;SDS011;43809;52.110;20.964;2022-08-21T01:27:19;2.10;;;1.90;;
58015;SDS011;43809;52.110;20.964;2022-08-21T01:29:25;3.97;;;3.10;;
58015;SDS011;43809;52.110;20.964;2022-08-21T01:31:27;3.08;;;2.78;;
58015;SDS011;43809;52.110;20.964;2022-08-21T01:33:27;3.25;;;2.60;;
58015;SDS011;43809;52.110;20.964;2022-08-21T01:35:27;3.23;;;2.70;;
58015;SDS011;43809;52.110;20.964;2022-08-21T01:37:27;3.15;;;2.58;;
58015;SDS011;43809;52.110;20.964;2022-08-21T01:39:28;3.47;;;2.77;;
58015;SDS011;43809;52.110;20.964;2022-08-21T01:41:28;4.43;;;3.30;;
58015;SDS011;43809;52.110;20.964;2022-08-21T01:43:28;3.27;;;2.83;;
58015;SDS011;43809;52.110;20.964;2022-08-21T01:45:29;2.83;;;2.53;;
58015;SDS011;43809;52.110;20.964;2022-08-21T01:47:29;4.00;;;2.83;;
58015;SDS011;43809;52.110;20.964;2022-08-21T01:49:29;2.58;;;2.38;;
58015;SDS011;43809;52.110;20.964;2022-08-21T01:51:30;3.22;;;2.85;;
58015;SDS011;43809;52.110;20.964;2022-08-21T01:53:30;4.35;;;3.30;;
58015;SDS011;43809;52.110;20.964;2022-08-21T01:55:30;3.30;;;2.95;;
58015;SDS011;43809;52.110;20.964;2022-08-21T01:57:30;3.60;;;3.13;;
58015;SDS011;43809;52.110;20.964;2022-08-21T01:59:31;3.30;;;3.00;;
58015;SDS011;43809;52.110;20.964;2022-08-21T02:01:31;3.65;;;3.30;;
58015;SDS011;43809;52.110;20.964;2022-08-21T02:03:31;2.90;;;2.67;;
58015;SDS011;43809;52.110;20.964;2022-08-21T02:05:31;2.35;;;2.15;;
58015;SDS011;43809;52.110;20.964;2022-08-21T02:07:39;4.53;;;3.00;;
58015;SDS011;43809;52.110;20.964;2022-08-21T02:09:39;5.47;;;3.78;;
58015;SDS011;43809;52.110;20.964;2022-08-21T02:11:42;3.20;;;2.90;;
58015;SDS011;43809;52.110;20.964;2022-08-21T02:13:42;3.00;;;2.70;;
58015;SDS011;43809;52.110;20.964;2022-08-21T02:15:42;3.10;;;2.65;;
58015;SDS011;43809;52.110;20.964;2022-08-21T02:17:45;3.03;;;2.53;;
58015;SDS011;43809;52.110;20.964;2022-08-21T02:19:45;2.20;;;2.00;;
58015;SDS011;43809;52.110;20.964;2022-08-21T02:21:45;2.20;;;2.00;;
58015;SDS011;43809;52.110;20.964;2022-08-21T02:23:46;2.80;;;2.33;;
58015;SDS011;43809;52.110;20.964;2022-08-21T02:25:46;2.30;;;2.15;;
58015;SDS011;43809;52.110;20.964;2022-08-21T02:27:46;2.05;;;1.88;;
58015;SDS011;43809;52.110;20.964;2022-08-21T02:29:47;2.15;;;1.95;;
58015;SDS011;43809;52.110;20.964;2022-08-21T02:31:47;2.20;;;2.00;;
58015;SDS011;43809;52.110;20.964;2022-08-21T02:33:47;2.33;;;2.13;;
58015;SDS011;43809;52.110;20.964;2022-08-21T02:35:48;2.30;;;2.10;;
58015;SDS011;43809;52.110;20.964;2022-08-21T02:37:49;3.30;;;2.63;;
58015;SDS011;43809;52.110;20.964;2022-08-21T02:39:50;2.55;;;2.35;;
58015;SDS011;43809;52.110;20.964;2022-08-21T02:41:50;2.60;;;2.40;;
58015;SDS011;43809;52.110;20.964;2022-08-21T02:43:50;2.53;;;2.33;;
58015;SDS011;43809;52.110;20.964;2022-08-21T02:45:51;2.55;;;2.30;;
58015;SDS011;43809;52.110;20.964;2022-08-21T02:47:53;2.80;;;2.60;;
58015;SDS011;43809;52.110;20.964;2022-08-21T02:49:53;2.72;;;2.28;;
58015;SDS011;43809;52.110;20.964;2022-08-21T02:51:53;3.00;;;2.70;;
58015;SDS011;43809;52.110;20.964;2022-08-21T02:53:54;2.27;;;2.07;;
58015;SDS011;43809;52.110;20.964;2022-08-21T02:55:54;2.40;;;2.20;;
58015;SDS011;43809;52.110;20.964;2022-08-21T02:57:56;2.47;;;2.28;;
58015;SDS011;43809;52.110;20.964;2022-08-21T02:59:56;2.30;;;2.10;;
58015;SDS011;43809;52.110;20.964;2022-08-21T03:01:57;2.30;;;2.10;;
58015;SDS011;43809;52.110;20.964;2022-08-21T03:03:57;2.13;;;1.93;;
58015;SDS011;43809;52.110;20.964;2022-08-21T03:05:57;3.17;;;2.27;;
58015;SDS011;43809;52.110;20.964;2022-08-21T03:07:58;2.42;;;2.22;;
58015;SDS011;43809;52.110;20.964;2022-08-21T03:09:59;2.45;;;2.25;;
58015;SDS011;43809;52.110;20.964;2022-08-21T03:11:59;3.00;;;1.97;;
58015;SDS011;43809;52.110;20.964;2022-08-21T03:13:59;3.67;;;2.60;;
58015;SDS011;43809;52.110;20.964;2022-08-21T03:15:59;3.73;;;2.70;;
58015;SDS011;43809;52.110;20.964;2022-08-21T03:18:00;2.87;;;2.57;;
58015;SDS011;43809;52.110;20.964;2022-08-21T03:20:00;2.38;;;2.17;;
58015;SDS011;43809;52.110;20.964;2022-08-21T03:22:01;3.35;;;3.05;;
58015;SDS011;43809;52.110;20.964;2022-08-21T03:24:01;2.70;;;2.50;;
58015;SDS011;43809;52.110;20.964;2022-08-21T03:26:02;3.47;;;3.05;;
58015;SDS011;43809;52.110;20.964;2022-08-21T03:28:03;2.83;;;2.60;;
58015;SDS011;43809;52.110;20.964;2022-08-21T03:30:04;2.60;;;2.40;;
58015;SDS011;43809;52.110;20.964;2022-08-21T03:32:05;3.20;;;2.50;;
58015;SDS011;43809;52.110;20.964;2022-08-21T03:34:07;2.92;;;2.30;;
58015;SDS011;43809;52.110;20.964;2022-08-21T03:36:07;3.30;;;2.97;;
58015;SDS011;43809;52.110;20.964;2022-08-21T03:38:07;3.08;;;2.80;;
58015;SDS011;43809;52.110;20.964;2022-08-21T03:40:08;2.63;;;2.30;;
58015;SDS011;43809;52.110;20.964;2022-08-21T03:42:08;2.70;;;2.50;;
58015;SDS011;43809;52.110;20.964;2022-08-21T03:44:09;2.30;;;2.10;;
58015;SDS011;43809;52.110;20.964;2022-08-21T03:46:09;2.87;;;2.67;;
58015;SDS011;43809;52.110;20.964;2022-08-21T03:48:09;3.60;;;3.30;;
58015;SDS011;43809;52.110;20.964;2022-08-21T03:50:09;3.13;;;2.87;;
58015;SDS011;43809;52.110;20.964;2022-08-21T03:52:10;3.50;;;3.08;;
58015;SDS011;43809;52.110;20.964;2022-08-21T03:54:10;4.30;;;3.80;;
58015;SDS011;43809;52.110;20.964;2022-08-21T03:56:11;2.75;;;2.55;;
58015;SDS011;43809;52.110;20.964;2022-08-21T03:58:11;3.43;;;3.13;;
58015;SDS011;43809;52.110;20.964;2022-08-21T04:00:13;5.78;;;4.93;;
58015;SDS011;43809;52.110;20.964;2022-08-21T04:02:13;4.70;;;3.78;;
58015;SDS011;43809;52.110;20.964;2022-08-21T04:04:16;3.55;;;3.25;;
58015;SDS011;43809;52.110;20.964;2022-08-21T04:06:17;3.90;;;3.50;;
58015;SDS011;43809;52.110;20.964;2022-08-21T04:08:17;3.80;;;3.40;;
58015;SDS011;43809;52.110;20.964;2022-08-21T04:10:18;3.80;;;3.50;;
58015;SDS011;43809;52.110;20.964;2022-08-21T04:12:19;6.70;;;5.72;;
58015;SDS011;43809;52.110;20.964;2022-08-21T04:14:20;5.43;;;4.63;;
58015;SDS011;43809;52.110;20.964;2022-08-21T04:16:20;4.40;;;4.00;;
58015;SDS011;43809;52.110;20.964;2022-08-21T04:18:20;3.67;;;3.37;;
58015;SDS011;43809;52.110;20.964;2022-08-21T04:20:21;4.05;;;3.67;;
58015;SDS011;43809;52.110;20.964;2022-08-21T04:22:21;3.78;;;3.30;;
58015;SDS011;43809;52.110;20.964;2022-08-21T04:24:22;3.15;;;2.95;;
58015;SDS011;43809;52.110;20.964;2022-08-21T04:26:22;2.78;;;2.58;;
58015;SDS011;43809;52.110;20.964;2022-08-21T04:28:23;3.23;;;2.93;;
58015;SDS011;43809;52.110;20.964;2022-08-21T04:30:24;4.43;;;4.03;;
58015;SDS011;43809;52.110;20.964;2022-08-21T04:32:24;3.50;;;3.20;;
58015;SDS011;43809;52.110;20.964;2022-08-21T04:34:25;4.30;;;3.75;;
58015;SDS011;43809;52.110;20.964;2022-08-21T04:36:25;3.40;;;3.10;;
58015;SDS011;43809;52.110;20.964;2022-08-21T04:38:25;5.75;;;4.93;;
58015;SDS011;43809;52.110;20.964;2022-08-21T04:40:27;4.80;;;4.30;;
58015;SDS011;43809;52.110;20.964;2022-08-21T04:42:27;4.50;;;4.10;;
58015;SDS011;43809;52.110;20.964;2022-08-21T04:44:28;5.05;;;4.45;;
58015;SDS011;43809;52.110;20.964;2022-08-21T04:46:28;4.33;;;3.93;;
58015;SDS011;43809;52.110;20.964;2022-08-21T04:48:28;4.27;;;3.87;;
58015;SDS011;43809;52.110;20.964;2022-08-21T04:50:30;5.60;;;4.18;;
58015;SDS011;43809;52.110;20.964;2022-08-21T04:54:31;4.43;;;3.92;;
58015;SDS011;43809;52.110;20.964;2022-08-21T04:56:32;5.80;;;4.37;;
58015;SDS011;43809;52.110;20.964;2022-08-21T04:58:35;5.20;;;4.80;;
58015;SDS011;43809;52.110;20.964;2022-08-21T05:00:36;6.30;;;5.00;;
58015;SDS011;43809;52.110;20.964;2022-08-21T05:02:36;4.90;;;4.50;;
58015;SDS011;43809;52.110;20.964;2022-08-21T05:04:39;4.07;;;3.70;;
58015;SDS011;43809;52.110;20.964;2022-08-21T05:06:41;5.60;;;4.72;;
58015;SDS011;43809;52.110;20.964;2022-08-21T05:08:43;7.93;;;5.05;;
58015;SDS011;43809;52.110;20.964;2022-08-21T05:10:45;4.23;;;3.83;;
58015;SDS011;43809;52.110;20.964;2022-08-21T05:12:45;4.60;;;4.20;;
58015;SDS011;43809;52.110;20.964;2022-08-21T05:14:45;5.75;;;4.70;;
58015;SDS011;43809;52.110;20.964;2022-08-21T05:16:47;5.63;;;4.30;;
58015;SDS011;43809;52.110;20.964;2022-08-21T05:18:47;5.43;;;4.50;;
58015;SDS011;43809;52.110;20.964;2022-08-21T05:20:47;5.90;;;4.47;;
58015;SDS011;43809;52.110;20.964;2022-08-21T05:22:47;5.27;;;4.50;;
58015;SDS011;43809;52.110;20.964;2022-08-21T05:24:47;6.80;;;4.73;;
58015;SDS011;43809;52.110;20.964;2022-08-21T05:26:48;5.60;;;5.03;;
58015;SDS011;43809;52.110;20.964;2022-08-21T05:28:48;5.40;;;4.37;;
58015;SDS011;43809;52.110;20.964;2022-08-21T05:30:48;5.00;;;4.50;;
58015;SDS011;43809;52.110;20.964;2022-08-21T05:32:48;6.32;;;4.70;;
58015;SDS011;43809;52.110;20.964;2022-08-21T05:34:49;5.50;;;4.93;;
58015;SDS011;43809;52.110;20.964;2022-08-21T05:36:49;4.72;;;4.32;;
58015;SDS011;43809;52.110;20.964;2022-08-21T05:38:50;4.65;;;4.20;;
58015;SDS011;43809;52.110;20.964;2022-08-21T05:40:50;4.95;;;4.45;;
58015;SDS011;43809;52.110;20.964;2022-08-21T05:42:50;6.17;;;5.07;;
58015;SDS011;43809;52.110;20.964;2022-08-21T05:44:50;4.85;;;4.35;;
58015;SDS011;43809;52.110;20.964;2022-08-21T05:46:51;4.67;;;4.23;;
58015;SDS011;43809;52.110;20.964;2022-08-21T05:48:51;4.73;;;4.30;;
58015;SDS011;43809;52.110;20.964;2022-08-21T05:50:51;4.13;;;3.73;;
58015;SDS011;43809;52.110;20.964;2022-08-21T05:52:52;4.45;;;3.40;;
58015;SDS011;43809;52.110;20.964;2022-08-21T05:54:52;3.87;;;3.47;;
58015;SDS011;43809;52.110;20.964;2022-08-21T05:56:53;5.15;;;4.60;;
58015;SDS011;43809;52.110;20.964;2022-08-21T05:58:54;5.57;;;4.90;;
58015;SDS011;43809;52.110;20.964;2022-08-21T06:00:54;6.90;;;4.65;;
58015;SDS011;43809;52.110;20.964;2022-08-21T06:02:54;6.10;;;4.57;;
58015;SDS011;43809;52.110;20.964;2022-08-21T06:04:55;5.13;;;4.23;;
58015;SDS011;43809;52.110;20.964;2022-08-21T06:06:56;5.60;;;4.27;;
58015;SDS011;43809;52.110;20.964;2022-08-21T06:08:56;5.13;;;4.30;;
58015;SDS011;43809;52.110;20.964;2022-08-21T06:10:57;5.60;;;4.53;;
58015;SDS011;43809;52.110;20.964;2022-08-21T06:12:58;4.97;;;4.35;;
58015;SDS011;43809;52.110;20.964;2022-08-21T06:14:58;4.20;;;3.80;;
58015;SDS011;43809;52.110;20.964;2022-08-21T06:17:05;4.37;;;3.93;;
58015;SDS011;43809;52.110;20.964;2022-08-21T06:19:05;4.50;;;4.10;;
58015;SDS011;43809;52.110;20.964;2022-08-21T06:21:06;4.07;;;3.67;;
58015;SDS011;43809;52.110;20.964;2022-08-21T06:23:06;4.25;;;3.50;;
58015;SDS011;43809;52.110;20.964;2022-08-21T06:25:07;4.53;;;3.77;;
58015;SDS011;43809;52.110;20.964;2022-08-21T06:27:07;3.65;;;3.35;;
58015;SDS011;43809;52.110;20.964;2022-08-21T06:29:07;4.43;;;3.60;;
58015;SDS011;43809;52.110;20.964;2022-08-21T06:31:13;3.50;;;3.20;;
58015;SDS011;43809;52.110;20.964;2022-08-21T06:33:14;4.63;;;3.75;;
58015;SDS011;43809;52.110;20.964;2022-08-21T06:35:14;3.28;;;2.97;;
58015;SDS011;43809;52.110;20.964;2022-08-21T06:37:14;4.00;;;3.60;;
58015;SDS011;43809;52.110;20.964;2022-08-21T06:39:14;3.53;;;3.22;;
58015;SDS011;43809;52.110;20.964;2022-08-21T06:41:15;3.30;;;3.00;;
58015;SDS011;43809;52.110;20.964;2022-08-21T06:43:15;3.87;;;3.17;;
58015;SDS011;43809;52.110;20.964;2022-08-21T06:45:16;3.22;;;2.92;;
58015;SDS011;43809;52.110;20.964;2022-08-21T06:47:16;3.13;;;2.77;;
58015;SDS011;43809;52.110;20.964;2022-08-21T06:49:16;3.70;;;3.40;;
58015;SDS011;43809;52.110;20.964;2022-08-21T06:51:16;3.83;;;3.23;;
58015;SDS011;43809;52.110;20.964;2022-08-21T06:53:18;3.70;;;3.40;;
58015;SDS011;43809;52.110;20.964;2022-08-21T06:57:19;4.28;;;3.80;;
58015;SDS011;43809;52.110;20.964;2022-08-21T06:59:19;3.87;;;3.57;;
58015;SDS011;43809;52.110;20.964;2022-08-21T07:01:20;4.00;;;3.50;;
58015;SDS011;43809;52.110;20.964;2022-08-21T07:03:24;4.63;;;3.70;;
58015;SDS011;43809;52.110;20.964;2022-08-21T07:05:25;3.55;;;3.25;;
58015;SDS011;43809;52.110;20.964;2022-08-21T07:07:25;3.15;;;2.88;;
58015;SDS011;43809;52.110;20.964;2022-08-21T07:09:26;4.07;;;3.67;;
58015;SDS011;43809;52.110;20.964;2022-08-21T07:11:26;4.38;;;3.97;;
58015;SDS011;43809;52.110;20.964;2022-08-21T07:13:27;4.13;;;3.70;;
58015;SDS011;43809;52.110;20.964;2022-08-21T07:15:28;4.05;;;3.47;;
58015;SDS011;43809;52.110;20.964;2022-08-21T07:17:29;4.23;;;3.70;;
58015;SDS011;43809;52.110;20.964;2022-08-21T07:19:29;4.90;;;4.40;;
58015;SDS011;43809;52.110;20.964;2022-08-21T07:21:29;3.90;;;3.60;;
58015;SDS011;43809;52.110;20.964;2022-08-21T07:23:30;4.10;;;3.60;;
58015;SDS011;43809;52.110;20.964;2022-08-21T07:25:32;14.45;;;5.20;;
58015;SDS011;43809;52.110;20.964;2022-08-21T07:27:32;4.45;;;4.05;;
58015;SDS011;43809;52.110;20.964;2022-08-21T07:29:32;4.95;;;3.90;;
58015;SDS011;43809;52.110;20.964;2022-08-21T07:31:32;4.50;;;4.10;;
58015;SDS011;43809;52.110;20.964;2022-08-21T07:33:34;5.37;;;4.00;;
58015;SDS011;43809;52.110;20.964;2022-08-21T07:35:34;4.60;;;4.18;;
58015;SDS011;43809;52.110;20.964;2022-08-21T07:37:34;4.20;;;3.80;;
58015;SDS011;43809;52.110;20.964;2022-08-21T07:39:34;3.65;;;3.35;;
58015;SDS011;43809;52.110;20.964;2022-08-21T07:41:35;4.43;;;3.90;;
58015;SDS011;43809;52.110;20.964;2022-08-21T07:43:36;4.20;;;3.60;;
58015;SDS011;43809;52.110;20.964;2022-08-21T07:45:37;4.20;;;3.88;;
58015;SDS011;43809;52.110;20.964;2022-08-21T07:47:37;3.73;;;3.43;;
58015;SDS011;43809;52.110;20.964;2022-08-21T07:49:38;4.15;;;3.75;;
58015;SDS011;43809;52.110;20.964;2022-08-21T07:51:39;5.43;;;4.80;;
58015;SDS011;43809;52.110;20.964;2022-08-21T07:53:39;3.97;;;3.67;;
58015;SDS011;43809;52.110;20.964;2022-08-21T07:55:39;4.70;;;4.18;;
58015;SDS011;43809;52.110;20.964;2022-08-21T07:57:40;4.17;;;3.63;;
58015;SDS011;43809;52.110;20.964;2022-08-21T07:59:40;3.90;;;3.60;;
58015;SDS011;43809;52.110;20.964;2022-08-21T08:01:40;3.67;;;3.37;;
58015;SDS011;43809;52.110;20.964;2022-08-21T08:03:41;4.10;;;3.78;;
58015;SDS011;43809;52.110;20.964;2022-08-21T08:05:41;4.50;;;4.03;;
58015;SDS011;43809;52.110;20.964;2022-08-21T08:07:41;4.82;;;4.05;;
58015;SDS011;43809;52.110;20.964;2022-08-21T08:09:41;5.22;;;4.20;;
58015;SDS011;43809;52.110;20.964;2022-08-21T08:11:42;5.07;;;4.50;;
58015;SDS011;43809;52.110;20.964;2022-08-21T08:13:46;4.65;;;4.20;;
58015;SDS011;43809;52.110;20.964;2022-08-21T08:15:46;5.63;;;4.07;;
58015;SDS011;43809;52.110;20.964;2022-08-21T08:17:46;3.77;;;3.47;;
58015;SDS011;43809;52.110;20.964;2022-08-21T08:19:47;4.47;;;4.07;;
58015;SDS011;43809;52.110;20.964;2022-08-21T08:21:48;5.10;;;4.68;;
58015;SDS011;43809;52.110;20.964;2022-08-21T08:23:49;4.88;;;4.28;;
58015;SDS011;43809;52.110;20.964;2022-08-21T08:25:49;4.90;;;4.20;;
58015;SDS011;43809;52.110;20.964;2022-08-21T08:27:50;4.60;;;4.20;;
58015;SDS011;43809;52.110;20.964;2022-08-21T08:29:55;4.47;;;3.83;;
58015;SDS011;43809;52.110;20.964;2022-08-21T08:31:58;3.83;;;3.50;;
58015;SDS011;43809;52.110;20.964;2022-08-21T08:34:02;4.03;;;3.72;;
58015;SDS011;43809;52.110;20.964;2022-08-21T08:36:08;4.85;;;4.32;;
58015;SDS011;43809;52.110;20.964;2022-08-21T08:38:12;3.85;;;3.55;;
58015;SDS011;43809;52.110;20.964;2022-08-21T08:40:28;4.18;;;3.70;;
58015;SDS011;43809;52.110;20.964;2022-08-21T08:42:33;5.43;;;4.07;;
58015;SDS011;43809;52.110;20.964;2022-08-21T08:44:33;3.55;;;3.25;;
58015;SDS011;43809;52.110;20.964;2022-08-21T08:48:53;4.15;;;3.75;;
58015;SDS011;43809;52.110;20.964;2022-08-21T08:51:02;5.63;;;4.18;;
58015;SDS011;43809;52.110;20.964;2022-08-21T08:53:06;4.03;;;3.67;;
58015;SDS011;43809;52.110;20.964;2022-08-21T08:57:18;3.35;;;3.05;;
58015;SDS011;43809;52.110;20.964;2022-08-21T08:59:25;3.47;;;3.17;;
58015;SDS011;43809;52.110;20.964;2022-08-21T09:01:27;3.40;;;3.10;;
58015;SDS011;43809;52.110;20.964;2022-08-21T09:03:27;3.70;;;3.40;;
58015;SDS011;43809;52.110;20.964;2022-08-21T09:05:39;5.50;;;3.80;;
58015;SDS011;43809;52.110;20.964;2022-08-21T09:07:46;4.30;;;3.90;;
58015;SDS011;43809;52.110;20.964;2022-08-21T09:14:39;3.80;;;3.50;;
58015;SDS011;43809;52.110;20.964;2022-08-21T09:27:20;4.18;;;3.78;;
58015;SDS011;43809;52.110;20.964;2022-08-21T09:29:23;3.88;;;3.45;;
58015;SDS011;43809;52.110;20.964;2022-08-21T09:33:25;2.88;;;2.67;;
58015;SDS011;43809;52.110;20.964;2022-08-21T09:35:25;4.83;;;3.67;;
58015;SDS011;43809;52.110;20.964;2022-08-21T09:37:29;4.00;;;3.60;;
58015;SDS011;43809;52.110;20.964;2022-08-21T09:39:31;3.75;;;3.17;;
58015;SDS011;43809;52.110;20.964;2022-08-21T09:41:33;2.50;;;2.30;;
58015;SDS011;43809;52.110;20.964;2022-08-21T09:43:36;3.80;;;3.17;;
58015;SDS011;43809;52.110;20.964;2022-08-21T09:45:37;3.17;;;2.80;;
58015;SDS011;43809;52.110;20.964;2022-08-21T09:47:38;3.35;;;3.05;;
58015;SDS011;43809;52.110;20.964;2022-08-21T09:49:39;2.90;;;2.70;;
58015;SDS011;43809;52.110;20.964;2022-08-21T09:51:39;3.97;;;3.40;;
58015;SDS011;43809;52.110;20.964;2022-08-21T09:53:51;6.05;;;4.10;;
58015;SDS011;43809;52.110;20.964;2022-08-21T09:55:53;3.80;;;3.50;;
58015;SDS011;43809;52.110;20.964;2022-08-21T09:58:13;3.80;;;3.50;;
58015;SDS011;43809;52.110;20.964;2022-08-21T10:02:21;2.90;;;2.70;;
58015;SDS011;43809;52.110;20.964;2022-08-21T10:04:24;3.35;;;3.05;;
58015;SDS011;43809;52.110;20.964;2022-08-21T10:06:26;2.97;;;2.78;;
58015;SDS011;43809;52.110;20.964;2022-08-21T10:08:27;3.20;;;2.90;;
58015;SDS011;43809;52.110;20.964;2022-08-21T10:10:31;3.07;;;2.70;;
58015;SDS011;43809;52.110;20.964;2022-08-21T10:12:55;2.72;;;2.53;;
58015;SDS011;43809;52.110;20.964;2022-08-21T10:14:55;3.95;;;3.30;;
58015;SDS011;43809;52.110;20.964;2022-08-21T10:21:18;3.30;;;3.00;;
58015;SDS011;43809;52.110;20.964;2022-08-21T10:23:28;3.22;;;2.92;;
58015;SDS011;43809;52.110;20.964;2022-08-21T10:25:38;3.08;;;2.83;;
58015;SDS011;43809;52.110;20.964;2022-08-21T10:27:43;3.28;;;2.97;;
58015;SDS011;43809;52.110;20.964;2022-08-21T10:29:55;3.03;;;2.70;;
58015;SDS011;43809;52.110;20.964;2022-08-21T10:32:00;4.38;;;3.13;;
58015;SDS011;43809;52.110;20.964;2022-08-21T10:36:12;2.47;;;2.28;;
58015;SDS011;43809;52.110;20.964;2022-08-21T10:44:41;3.03;;;2.70;;
58015;SDS011;43809;52.110;20.964;2022-08-21T10:46:55;2.55;;;2.35;;
58015;SDS011;43809;52.110;20.964;2022-08-21T10:48:59;2.95;;;2.30;;
58015;SDS011;43809;52.110;20.964;2022-08-21T10:51:06;2.40;;;2.20;;
58015;SDS011;43809;52.110;20.964;2022-08-21T10:55:22;3.05;;;2.80;;
58015;SDS011;43809;52.110;20.964;2022-08-21T10:57:27;3.60;;;3.25;;
58015;SDS011;43809;52.110;20.964;2022-08-21T10:59:31;3.53;;;2.92;;
58015;SDS011;43809;52.110;20.964;2022-08-21T11:01:39;2.88;;;2.67;;
58015;SDS011;43809;52.110;20.964;2022-08-21T11:03:43;2.90;;;2.70;;
58015;SDS011;43809;52.110;20.964;2022-08-21T11:07:48;2.60;;;2.40;;
58015;SDS011;43809;52.110;20.964;2022-08-21T11:09:49;2.67;;;2.47;;
58015;SDS011;43809;52.110;20.964;2022-08-21T11:13:55;2.90;;;2.38;;
58015;SDS011;43809;52.110;20.964;2022-08-21T11:18:21;2.50;;;2.30;;
58015;SDS011;43809;52.110;20.964;2022-08-21T11:20:30;3.08;;;2.17;;
58015;SDS011;43809;52.110;20.964;2022-08-21T11:22:35;4.63;;;2.92;;
58015;SDS011;43809;52.110;20.964;2022-08-21T11:24:47;2.75;;;2.55;;
58015;SDS011;43809;52.110;20.964;2022-08-21T11:27:16;3.10;;;2.80;;
58015;SDS011;43809;52.110;20.964;2022-08-21T11:29:20;3.28;;;2.97;;
58015;SDS011;43809;52.110;20.964;2022-08-21T11:33:41;3.08;;;2.70;;
58015;SDS011;43809;52.110;20.964;2022-08-21T11:40:01;2.65;;;2.45;;
58015;SDS011;43809;52.110;20.964;2022-08-21T11:44:09;2.53;;;2.33;;
58015;SDS011;43809;52.110;20.964;2022-08-21T11:50:19;2.22;;;2.03;;
58015;SDS011;43809;52.110;20.964;2022-08-21T11:52:22;2.05;;;1.95;;
58015;SDS011;43809;52.110;20.964;2022-08-21T11:54:36;2.50;;;2.30;;
58015;SDS011;43809;52.110;20.964;2022-08-21T11:58:39;3.60;;;2.70;;
58015;SDS011;43809;52.110;20.964;2022-08-21T12:00:48;3.25;;;2.95;;
58015;SDS011;43809;52.110;20.964;2022-08-21T12:02:50;2.70;;;2.50;;
58015;SDS011;43809;52.110;20.964;2022-08-21T12:04:53;2.50;;;2.30;;
58015;SDS011;43809;52.110;20.964;2022-08-21T12:06:55;2.63;;;2.25;;
58015;SDS011;43809;52.110;20.964;2022-08-21T12:09:00;2.10;;;1.90;;
58015;SDS011;43809;52.110;20.964;2022-08-21T12:11:03;2.78;;;2.28;;
58015;SDS011;43809;52.110;20.964;2022-08-21T12:13:26;2.40;;;2.20;;
58015;SDS011;43809;52.110;20.964;2022-08-21T12:15:27;2.25;;;2.05;;
58015;SDS011;43809;52.110;20.964;2022-08-21T12:17:35;2.70;;;2.50;;
58015;SDS011;43809;52.110;20.964;2022-08-21T12:19:35;2.50;;;2.30;;
58015;SDS011;43809;52.110;20.964;2022-08-21T12:28:10;2.77;;;2.43;;
58015;SDS011;43809;52.110;20.964;2022-08-21T12:30:34;2.47;;;2.28;;
58015;SDS011;43809;52.110;20.964;2022-08-21T12:34:48;3.17;;;2.30;;
58015;SDS011;43809;52.110;20.964;2022-08-21T12:36:54;3.17;;;2.88;;
58015;SDS011;43809;52.110;20.964;2022-08-21T12:39:03;2.80;;;2.60;;
58015;SDS011;43809;52.110;20.964;2022-08-21T12:41:10;2.97;;;2.50;;
58015;SDS011;43809;52.110;20.964;2022-08-21T12:43:13;2.83;;;2.63;;
58015;SDS011;43809;52.110;20.964;2022-08-21T12:45:19;3.22;;;2.92;;
58015;SDS011;43809;52.110;20.964;2022-08-21T12:47:25;3.15;;;2.85;;
58015;SDS011;43809;52.110;20.964;2022-08-21T12:49:28;3.00;;;2.70;;
58015;SDS011;43809;52.110;20.964;2022-08-21T12:51:32;3.45;;;2.58;;
58015;SDS011;43809;52.110;20.964;2022-08-21T12:53:40;3.35;;;3.05;;
58015;SDS011;43809;52.110;20.964;2022-08-21T12:55:42;3.13;;;2.80;;
58015;SDS011;43809;52.110;20.964;2022-08-21T12:57:43;2.50;;;2.30;;
58015;SDS011;43809;52.110;20.964;2022-08-21T12:59:43;2.97;;;2.20;;
58015;SDS011;43809;52.110;20.964;2022-08-21T13:01:45;2.67;;;2.43;;
58015;SDS011;43809;52.110;20.964;2022-08-21T13:03:46;3.70;;;2.80;;
58015;SDS011;43809;52.110;20.964;2022-08-21T13:05:46;2.70;;;2.50;;
58015;SDS011;43809;52.110;20.964;2022-08-21T13:07:47;3.30;;;3.00;;
58015;SDS011;43809;52.110;20.964;2022-08-21T13:09:52;3.15;;;2.80;;
58015;SDS011;43809;52.110;20.964;2022-08-21T13:11:53;2.53;;;2.33;;
58015;SDS011;43809;52.110;20.964;2022-08-21T13:13:53;3.10;;;2.80;;
58015;SDS011;43809;52.110;20.964;2022-08-21T13:15:58;2.30;;;2.10;;
58015;SDS011;43809;52.110;20.964;2022-08-21T13:17:59;2.50;;;2.33;;